createdAt,value
2023-01-20T00:01:29.879Z,11.03
2023-01-20T00:03:57.516Z,6.93
2023-01-20T00:06:27.867Z,8.00
2023-01-20T00:08:56.864Z,7.87
2023-01-20T00:11:24.742Z,6.23
2023-01-20T00:14:00.469Z,7.37
2023-01-20T00:16:28.528Z,8.73
2023-01-20T00:18:55.481Z,8.30
2023-01-20T00:21:23.361Z,5.80
2023-01-20T00:23:50.488Z,5.60
2023-01-20T00:26:20.309Z,6.93
2023-01-20T00:28:48.253Z,7.53
2023-01-20T00:31:27.097Z,7.20
2023-01-20T00:33:56.164Z,7.10
2023-01-20T00:36:24.308Z,6.60
2023-01-20T00:38:52.154Z,5.80
2023-01-20T00:41:19.517Z,5.83
2023-01-20T00:43:46.398Z,7.67
2023-01-20T00:46:14.176Z,7.37
2023-01-20T00:48:41.633Z,7.90
2023-01-20T00:51:09.194Z,6.33
2023-01-20T00:53:43.850Z,6.40
2023-01-20T00:56:10.673Z,6.37
2023-01-20T00:58:37.426Z,9.10
2023-01-20T01:01:04.606Z,6.03
2023-01-20T01:03:31.441Z,5.53
2023-01-20T01:06:13.377Z,5.83
2023-01-20T01:08:40.324Z,8.83
2023-01-20T01:11:07.267Z,4.43
2023-01-20T01:13:34.499Z,6.73
2023-01-20T01:16:01.388Z,6.10
2023-01-20T01:18:28.197Z,5.97
2023-01-20T01:20:54.897Z,5.17
2023-01-20T01:23:22.128Z,7.40
2023-01-20T01:25:48.828Z,5.90
2023-01-20T01:28:15.565Z,6.07
2023-01-20T01:30:42.333Z,6.17
2023-01-20T01:33:09.055Z,16.80
2023-01-20T01:35:35.689Z,6.17
2023-01-20T01:38:02.389Z,5.63
2023-01-20T01:40:29.156Z,5.70
2023-01-20T01:42:55.816Z,8.13
2023-01-20T01:45:26.004Z,5.27
2023-01-20T01:48:05.577Z,6.43
2023-01-20T01:50:38.440Z,9.60
2023-01-20T01:53:06.311Z,5.20
2023-01-20T01:55:53.936Z,6.20
2023-01-20T01:58:24.985Z,7.63
2023-01-20T02:00:52.273Z,5.97
2023-01-20T02:03:19.812Z,5.40
2023-01-20T02:05:50.027Z,6.23
2023-01-20T02:08:17.313Z,7.33
2023-01-20T02:10:43.996Z,7.83
2023-01-20T02:13:11.217Z,5.10
2023-01-20T02:15:55.823Z,5.93
2023-01-20T02:18:34.090Z,4.80
2023-01-20T02:21:27.436Z,4.60
2023-01-20T02:24:12.813Z,5.30
2023-01-20T02:26:53.570Z,8.77
2023-01-20T02:29:50.690Z,4.90
2023-01-20T02:32:23.282Z,5.27
2023-01-20T02:34:54.440Z,5.70
2023-01-20T02:37:28.631Z,6.07
2023-01-20T02:40:05.326Z,5.87
2023-01-20T02:42:41.220Z,7.10
2023-01-20T02:45:24.008Z,5.90
2023-01-20T02:48:16.915Z,6.00
2023-01-20T02:51:09.827Z,5.67
2023-01-20T02:53:50.530Z,5.20
2023-01-20T02:56:19.837Z,5.27
2023-01-20T02:58:50.655Z,7.00
2023-01-20T03:01:22.899Z,5.00
2023-01-20T03:03:54.365Z,5.83
2023-01-20T03:06:25.490Z,6.23
2023-01-20T03:08:55.340Z,9.77
2023-01-20T03:11:22.261Z,5.50
2023-01-20T03:13:55.281Z,6.90
2023-01-20T03:16:24.900Z,5.00
2023-01-20T03:18:52.109Z,5.33
2023-01-20T03:21:19.216Z,5.57
2023-01-20T03:23:51.814Z,5.50
2023-01-20T03:26:20.511Z,6.03
2023-01-20T03:28:48.893Z,5.17
2023-01-20T03:31:20.848Z,6.10
2023-01-20T03:33:50.325Z,7.23
2023-01-20T03:36:20.491Z,7.47
2023-01-20T03:38:48.206Z,4.73
2023-01-20T03:41:20.278Z,8.00
2023-01-20T03:44:04.637Z,6.10
2023-01-20T03:46:39.047Z,4.73
2023-01-20T03:49:17.942Z,7.80
2023-01-20T03:52:05.023Z,5.20
2023-01-20T03:54:38.345Z,5.00
2023-01-20T03:57:12.183Z,5.87
2023-01-20T03:59:42.310Z,5.07
2023-01-20T04:02:11.015Z,8.20
2023-01-20T04:04:40.535Z,5.97
2023-01-20T04:07:11.445Z,5.17
2023-01-20T04:09:48.017Z,6.33
2023-01-20T04:12:14.751Z,5.80
2023-01-20T04:14:41.407Z,6.47
2023-01-20T04:17:08.491Z,7.50
2023-01-20T04:19:35.242Z,6.63
2023-01-20T04:22:12.778Z,7.80
2023-01-20T04:24:49.106Z,6.77
2023-01-20T04:27:15.747Z,6.40
2023-01-20T04:29:43.027Z,6.37
2023-01-20T04:32:11.873Z,8.73
2023-01-20T04:34:38.965Z,5.13
2023-01-20T04:37:05.728Z,7.77
2023-01-20T04:39:32.383Z,6.27
2023-01-20T04:41:59.048Z,5.10
2023-01-20T04:44:25.973Z,5.60
2023-01-20T04:46:57.420Z,5.00
2023-01-20T04:49:24.341Z,6.30
2023-01-20T04:51:51.028Z,6.13
2023-01-20T04:54:17.677Z,5.00
2023-01-20T04:56:44.585Z,4.70
2023-01-20T04:59:11.250Z,6.57
2023-01-20T05:01:37.947Z,8.63
2023-01-20T05:04:04.675Z,8.50
2023-01-20T05:06:31.502Z,5.50
2023-01-20T05:08:58.201Z,8.83
2023-01-20T05:11:24.917Z,6.07
2023-01-20T05:13:51.586Z,8.07
2023-01-20T05:16:25.022Z,18.23
2023-01-20T05:18:51.739Z,7.97
2023-01-20T05:21:18.437Z,6.80
2023-01-20T05:23:45.244Z,6.60
2023-01-20T05:26:11.887Z,9.03
2023-01-20T05:28:39.285Z,8.70
2023-01-20T05:31:06.059Z,7.10
2023-01-20T05:33:32.800Z,7.07
2023-01-20T05:35:59.473Z,6.17
2023-01-20T05:38:26.304Z,13.73
2023-01-20T05:40:59.919Z,6.97
2023-01-20T05:43:26.967Z,6.83
2023-01-20T05:45:53.583Z,6.67
2023-01-20T05:48:20.349Z,8.47
2023-01-20T05:50:46.991Z,7.00
2023-01-20T05:53:14.110Z,7.23
2023-01-20T05:55:40.773Z,7.50
2023-01-20T05:58:07.710Z,8.00
2023-01-20T06:00:34.858Z,6.40
2023-01-20T06:03:01.664Z,6.40
2023-01-20T06:05:28.531Z,7.47
2023-01-20T06:07:56.000Z,7.10
2023-01-20T06:10:29.596Z,7.13
2023-01-20T06:12:56.811Z,7.07
2023-01-20T06:15:24.412Z,8.03
2023-01-20T06:17:52.035Z,6.47
2023-01-20T06:20:19.052Z,6.67
2023-01-20T06:22:45.771Z,9.07
2023-01-20T06:25:12.429Z,7.13
2023-01-20T06:27:39.030Z,8.40
2023-01-20T06:30:06.570Z,8.97
2023-01-20T06:32:33.265Z,7.40
2023-01-20T06:34:59.929Z,6.17
2023-01-20T06:37:26.599Z,8.30
2023-01-20T06:39:53.268Z,11.03
2023-01-20T06:42:19.924Z,7.30
2023-01-20T06:44:46.697Z,9.00
2023-01-20T06:47:13.403Z,7.20
2023-01-20T06:49:40.089Z,12.47
2023-01-20T06:52:06.850Z,6.70
2023-01-20T06:54:33.538Z,7.00
2023-01-20T06:57:00.347Z,6.93
2023-01-20T06:59:27.077Z,7.97
2023-01-20T07:01:53.811Z,8.40
2023-01-20T07:04:20.509Z,6.73
2023-01-20T07:06:47.229Z,8.50
2023-01-20T07:09:14.274Z,6.23
2023-01-20T07:11:40.990Z,6.40
2023-01-20T07:14:08.333Z,9.20
2023-01-20T07:16:35.481Z,9.63
2023-01-20T07:19:02.596Z,8.10
2023-01-20T07:21:29.475Z,7.87
2023-01-20T07:23:56.158Z,7.93
2023-01-20T07:26:26.408Z,11.17
2023-01-20T07:28:53.247Z,9.20
2023-01-20T07:31:28.227Z,7.20
2023-01-20T07:33:56.693Z,12.60
2023-01-20T07:36:23.888Z,9.90
2023-01-20T07:38:51.113Z,10.30
2023-01-20T07:41:20.011Z,9.80
2023-01-20T07:43:49.790Z,7.20
2023-01-20T07:46:16.818Z,6.93
2023-01-20T07:48:43.777Z,7.03
2023-01-20T07:51:13.084Z,8.67
2023-01-20T07:53:47.240Z,7.93
2023-01-20T07:56:17.071Z,10.47
2023-01-20T07:58:45.416Z,9.63
2023-01-20T08:01:18.553Z,11.10
2023-01-20T08:03:45.547Z,12.30
2023-01-20T08:06:14.771Z,10.10
2023-01-20T08:08:41.666Z,9.43
2023-01-20T08:11:10.054Z,8.13
2023-01-20T08:13:36.718Z,9.90
2023-01-20T08:16:06.206Z,11.90
2023-01-20T08:18:34.329Z,11.17
2023-01-20T08:21:06.393Z,7.30
2023-01-20T08:23:34.413Z,8.90
2023-01-20T08:26:03.347Z,10.67
2023-01-20T08:28:30.742Z,13.80
2023-01-20T08:31:08.503Z,13.50
2023-01-20T08:33:35.282Z,11.20
2023-01-20T08:36:13.162Z,10.07
2023-01-20T08:38:40.470Z,9.43
2023-01-20T08:41:13.201Z,10.63
2023-01-20T08:43:39.889Z,7.73
2023-01-20T08:46:09.316Z,9.57
2023-01-20T08:48:37.955Z,14.00
2023-01-20T08:51:10.337Z,8.10
2023-01-20T08:53:44.062Z,8.47
2023-01-20T08:56:12.097Z,8.57
2023-01-20T08:58:38.944Z,7.90
2023-01-20T09:01:14.775Z,7.53
2023-01-20T09:03:49.378Z,7.10
2023-01-20T09:06:27.224Z,9.80
2023-01-20T09:08:55.140Z,7.77
2023-01-20T09:11:25.072Z,8.53
2023-01-20T09:13:52.601Z,9.23
2023-01-20T09:16:19.737Z,11.47
2023-01-20T09:18:46.796Z,7.90
2023-01-20T09:21:13.651Z,7.47
2023-01-20T09:23:43.004Z,6.37
2023-01-20T09:26:09.981Z,8.90
2023-01-20T09:28:36.865Z,9.37
2023-01-20T09:31:08.584Z,7.10
2023-01-20T09:33:38.331Z,9.27
2023-01-20T09:36:07.946Z,9.70
2023-01-20T09:38:53.161Z,8.67
2023-01-20T09:41:49.349Z,12.07
2023-01-20T09:44:15.977Z,12.33
2023-01-20T09:47:17.425Z,11.93
2023-01-20T09:50:23.567Z,7.40
2023-01-20T09:53:04.786Z,9.63
2023-01-20T09:55:40.960Z,7.57
2023-01-20T09:58:25.490Z,6.57
2023-01-20T10:00:59.214Z,7.93
2023-01-20T10:03:47.305Z,7.00
2023-01-20T10:06:24.950Z,6.13
2023-01-20T10:09:06.021Z,6.83
2023-01-20T10:11:43.622Z,7.33
2023-01-20T10:14:34.624Z,7.57
2023-01-20T10:17:16.568Z,5.13
2023-01-20T10:20:03.960Z,5.53
2023-01-20T10:22:47.971Z,6.70
2023-01-20T10:25:23.744Z,5.93
2023-01-20T10:27:54.691Z,5.93
2023-01-20T10:30:25.851Z,6.00
2023-01-20T10:32:52.451Z,9.50
2023-01-20T10:35:33.477Z,6.63
2023-01-20T10:38:00.473Z,7.87
2023-01-20T10:40:42.257Z,5.80
2023-01-20T10:43:17.036Z,5.17
2023-01-20T10:45:56.597Z,4.80
2023-01-20T10:48:37.550Z,5.43
2023-01-20T10:51:19.431Z,4.17
2023-01-20T10:53:57.479Z,6.37
2023-01-20T10:56:27.084Z,6.13
2023-01-20T10:58:53.991Z,5.57
2023-01-20T11:01:21.623Z,5.97
2023-01-20T11:03:49.502Z,8.33
2023-01-20T11:06:26.715Z,5.93
2023-01-20T11:08:55.127Z,6.60
2023-01-20T11:11:24.572Z,4.83
2023-01-20T11:13:52.486Z,5.43
2023-01-20T11:16:25.612Z,6.93
2023-01-20T11:19:01.168Z,5.67
2023-01-20T11:21:37.046Z,6.47
2023-01-20T11:24:55.876Z,8.17
2023-01-20T11:27:26.896Z,5.30
2023-01-20T11:29:59.361Z,7.97
2023-01-20T11:32:25.965Z,7.03
2023-01-20T11:34:54.731Z,10.70
2023-01-20T11:37:38.131Z,6.87
2023-01-20T11:40:19.291Z,8.10
2023-01-20T11:42:47.987Z,6.57
2023-01-20T11:45:26.047Z,6.93
2023-01-20T11:48:16.075Z,8.57
2023-01-20T11:51:04.582Z,7.30
2023-01-20T11:53:35.632Z,7.97
2023-01-20T11:56:19.612Z,7.40
2023-01-20T11:58:58.674Z,7.03
2023-01-20T12:01:27.577Z,6.47
2023-01-20T12:04:29.534Z,6.30
2023-01-20T12:07:03.742Z,6.67
2023-01-20T12:09:37.718Z,5.90
2023-01-20T12:12:35.538Z,6.87
2023-01-20T12:15:06.099Z,8.23
2023-01-20T12:17:32.752Z,6.60
2023-01-20T12:20:19.680Z,5.80
2023-01-20T12:23:01.717Z,7.70
2023-01-20T12:25:34.289Z,9.90
2023-01-20T12:28:18.377Z,8.00
2023-01-20T12:30:52.065Z,9.70
2023-01-20T12:33:39.019Z,9.27
2023-01-20T12:36:26.841Z,10.40
2023-01-20T12:39:02.499Z,9.47
2023-01-20T12:42:09.507Z,10.43
2023-01-20T12:45:01.027Z,13.20
2023-01-20T12:48:03.177Z,10.47
2023-01-20T12:50:57.715Z,8.43
2023-01-20T12:53:43.209Z,11.23
2023-01-20T12:56:28.695Z,10.13
2023-01-20T12:59:18.829Z,9.53
2023-01-20T13:02:24.222Z,12.40
2023-01-20T13:05:24.325Z,10.57
2023-01-20T13:08:15.595Z,8.57
2023-01-20T13:10:55.495Z,9.67
2023-01-20T13:14:03.989Z,8.63
2023-01-20T13:16:45.532Z,9.30
2023-01-20T13:19:14.276Z,10.23
2023-01-20T13:21:42.599Z,14.50
2023-01-20T13:24:19.103Z,11.80
2023-01-20T13:26:48.300Z,10.97
2023-01-20T13:29:43.577Z,12.63
2023-01-20T13:32:32.117Z,9.43
2023-01-20T13:35:00.161Z,10.10
2023-01-20T13:37:35.712Z,10.70
2023-01-20T13:40:03.652Z,9.77
2023-01-20T13:42:36.319Z,9.33
2023-01-20T13:45:11.831Z,11.07
2023-01-20T13:48:02.144Z,10.70
2023-01-20T13:50:33.280Z,9.83
2023-01-20T13:53:06.059Z,11.37
2023-01-20T13:55:41.669Z,10.70
2023-01-20T13:58:26.071Z,10.70
2023-01-20T14:00:54.811Z,10.53
2023-01-20T14:03:31.987Z,16.67
2023-01-20T14:06:04.343Z,11.13
2023-01-20T14:08:38.889Z,10.87
2023-01-20T14:11:24.765Z,10.97
2023-01-20T14:14:05.930Z,12.40
2023-01-20T14:16:35.656Z,10.17
2023-01-20T14:19:18.593Z,13.90
2023-01-20T14:21:45.329Z,15.10
2023-01-20T14:24:31.067Z,12.70
2023-01-20T14:27:24.145Z,12.50
2023-01-20T14:29:53.080Z,11.77
2023-01-20T14:32:26.564Z,13.20
2023-01-20T14:34:54.119Z,13.37
2023-01-20T14:37:36.225Z,12.70
2023-01-20T14:40:12.009Z,14.43
2023-01-20T14:42:39.945Z,12.70
2023-01-20T14:45:22.253Z,10.80
2023-01-20T14:47:50.603Z,11.40
2023-01-20T14:50:19.177Z,11.33
2023-01-20T14:52:46.505Z,12.80
2023-01-20T14:55:40.719Z,14.53
2023-01-20T14:58:16.492Z,10.33
2023-01-20T15:00:45.265Z,12.17
2023-01-20T15:03:24.878Z,13.10
2023-01-20T15:06:04.535Z,11.63
2023-01-20T15:08:33.981Z,12.60
2023-01-20T15:11:18.924Z,12.93
2023-01-20T15:13:53.145Z,16.07
2023-01-20T15:16:36.438Z,12.20
2023-01-20T15:19:15.549Z,11.57
2023-01-20T15:21:49.588Z,14.30
2023-01-20T15:24:31.308Z,15.63
2023-01-20T15:27:03.257Z,14.87
2023-01-20T15:29:31.319Z,12.23
2023-01-20T15:32:00.956Z,14.10
2023-01-20T15:34:28.326Z,16.00
2023-01-20T15:36:56.083Z,13.07
2023-01-20T15:39:26.099Z,15.20
2023-01-20T15:41:55.793Z,12.67
2023-01-20T15:44:24.513Z,14.30
2023-01-20T15:46:51.831Z,16.00
2023-01-20T15:49:19.120Z,13.57
2023-01-20T15:51:46.146Z,11.80
2023-01-20T15:54:13.820Z,13.43
2023-01-20T15:56:42.190Z,11.90
2023-01-20T15:59:13.150Z,12.90
2023-01-20T16:01:40.225Z,12.13
2023-01-20T16:04:06.904Z,12.40
2023-01-20T16:06:34.332Z,13.67
2023-01-20T16:09:02.317Z,18.37
2023-01-20T16:11:29.033Z,16.30
2023-01-20T16:13:55.712Z,12.77
2023-01-20T16:16:24.054Z,19.20
2023-01-20T16:18:50.820Z,14.90
2023-01-20T16:21:19.559Z,15.30
2023-01-20T16:23:46.342Z,16.53
2023-01-20T16:26:22.684Z,13.50
2023-01-20T16:28:51.807Z,14.90
2023-01-20T16:31:19.516Z,14.13
2023-01-20T16:33:46.655Z,13.60
2023-01-20T16:36:15.262Z,13.67
2023-01-20T16:38:42.288Z,14.13
2023-01-20T16:41:27.761Z,12.90
2023-01-20T16:43:55.512Z,12.53
2023-01-20T16:46:23.703Z,14.13
2023-01-20T16:48:51.523Z,12.20
2023-01-20T16:51:21.320Z,12.60
2023-01-20T16:53:48.824Z,13.37
2023-01-20T16:56:17.368Z,12.10
2023-01-20T16:58:47.310Z,11.50
2023-01-20T17:01:14.126Z,11.33
2023-01-20T17:03:43.887Z,12.77
2023-01-20T17:06:19.078Z,12.93
2023-01-20T17:08:47.560Z,12.73
2023-01-20T17:11:21.993Z,12.40
2023-01-20T17:13:48.863Z,13.20
2023-01-20T17:16:15.893Z,13.63
2023-01-20T17:18:45.678Z,11.37
2023-01-20T17:21:13.869Z,12.40
2023-01-20T17:23:41.231Z,17.63
2023-01-20T17:26:08.916Z,15.10
2023-01-20T17:28:35.678Z,12.30
2023-01-20T17:31:06.542Z,13.10
2023-01-20T17:33:34.063Z,12.63
2023-01-20T17:36:04.093Z,13.83
2023-01-20T17:38:33.362Z,12.27
2023-01-20T17:41:04.274Z,14.83
2023-01-20T17:43:35.653Z,11.80
2023-01-20T17:46:15.643Z,13.57
2023-01-20T17:48:43.467Z,13.57
2023-01-20T17:51:14.800Z,14.17
2023-01-20T17:53:46.440Z,14.80
2023-01-20T17:56:14.148Z,13.87
2023-01-20T17:58:43.245Z,16.17
2023-01-20T18:01:11.004Z,13.23
2023-01-20T18:03:40.003Z,13.43
2023-01-20T18:06:08.700Z,12.87
2023-01-20T18:08:35.931Z,12.77
2023-01-20T18:11:15.310Z,13.17
2023-01-20T18:13:44.916Z,13.17
2023-01-20T18:16:13.303Z,15.27
2023-01-20T18:18:41.179Z,13.73
2023-01-20T18:21:22.464Z,13.20
2023-01-20T18:23:50.217Z,15.10
2023-01-20T18:26:19.819Z,13.43
2023-01-20T18:28:49.446Z,14.30
2023-01-20T18:31:19.011Z,15.10
2023-01-20T18:33:54.638Z,13.17
2023-01-20T18:36:24.145Z,12.87
2023-01-20T18:38:56.184Z,13.67
2023-01-20T18:41:24.058Z,15.77
2023-01-20T18:43:51.629Z,11.80
2023-01-20T18:46:19.115Z,11.33
2023-01-20T18:48:47.400Z,16.50
2023-01-20T18:51:15.902Z,13.33
2023-01-20T18:53:46.249Z,14.73
2023-01-20T18:56:15.447Z,12.80
2023-01-20T18:58:49.732Z,17.60
2023-01-20T19:01:20.105Z,10.23
2023-01-20T19:03:48.587Z,13.37
2023-01-20T19:06:17.918Z,13.93
2023-01-20T19:08:45.574Z,14.90
2023-01-20T19:11:15.700Z,14.77
2023-01-20T19:13:43.736Z,13.20
2023-01-20T19:16:13.008Z,15.77
2023-01-20T19:18:41.285Z,16.80
2023-01-20T19:21:11.605Z,14.47
2023-01-20T19:23:39.392Z,14.17
2023-01-20T19:26:11.807Z,14.47
2023-01-20T19:28:39.623Z,15.23
2023-01-20T19:31:09.381Z,11.73
2023-01-20T19:33:36.887Z,13.80
2023-01-20T19:36:06.239Z,17.10
2023-01-20T19:38:36.280Z,14.97
2023-01-20T19:41:11.702Z,17.30
2023-01-20T19:43:38.983Z,16.50
2023-01-20T19:46:17.923Z,13.90
2023-01-20T19:48:45.681Z,14.73
2023-01-20T19:51:16.048Z,17.03
2023-01-20T19:53:44.383Z,16.80
2023-01-20T19:56:13.507Z,17.67
2023-01-20T19:58:40.207Z,12.90
2023-01-20T20:01:12.921Z,15.10
2023-01-20T20:03:39.738Z,12.03
2023-01-20T20:06:08.785Z,12.27
2023-01-20T20:08:39.130Z,15.13
2023-01-20T20:11:10.468Z,14.20
2023-01-20T20:13:37.200Z,12.03
2023-01-20T20:16:04.914Z,14.53
2023-01-20T20:18:32.229Z,13.73
2023-01-20T20:20:59.257Z,11.80
2023-01-20T20:23:26.488Z,17.53
2023-01-20T20:25:57.590Z,18.03
2023-01-20T20:28:25.305Z,17.13
2023-01-20T20:30:52.270Z,15.17
2023-01-20T20:33:19.296Z,17.17
2023-01-20T20:35:46.327Z,20.30
2023-01-20T20:38:12.991Z,14.77
2023-01-20T20:40:39.686Z,17.17
2023-01-20T20:43:06.360Z,14.00
2023-01-20T20:45:34.127Z,16.53
2023-01-20T20:48:00.800Z,16.37
2023-01-20T20:50:28.139Z,19.87
2023-01-20T20:52:56.800Z,18.53
2023-01-20T20:55:25.213Z,15.07
2023-01-20T20:57:52.008Z,15.17
2023-01-20T21:00:23.442Z,16.40
2023-01-20T21:02:50.372Z,14.13
2023-01-20T21:05:19.025Z,14.67
2023-01-20T21:07:46.000Z,17.63
2023-01-20T21:10:14.394Z,18.20
2023-01-20T21:12:41.538Z,13.47
2023-01-20T21:15:10.516Z,13.03
2023-01-20T21:17:38.160Z,15.13
2023-01-20T21:20:05.315Z,14.23
2023-01-20T21:22:32.029Z,14.63
2023-01-20T21:24:58.885Z,13.40
2023-01-20T21:27:25.638Z,13.30
2023-01-20T21:29:52.358Z,11.57
2023-01-20T21:32:19.078Z,14.03
2023-01-20T21:34:45.794Z,13.00
2023-01-20T21:37:12.443Z,15.00
2023-01-20T21:39:39.075Z,13.83
2023-01-20T21:42:06.201Z,14.70
2023-01-20T21:44:34.183Z,12.90
2023-01-20T21:47:03.976Z,13.77
2023-01-20T21:49:49.384Z,10.60
2023-01-20T21:52:37.174Z,12.77
2023-01-20T21:55:05.298Z,11.20
2023-01-20T21:57:35.521Z,15.93
2023-01-20T22:00:03.740Z,11.57
2023-01-20T22:02:39.390Z,12.80
2023-01-20T22:05:06.562Z,11.90
2023-01-20T22:07:33.322Z,15.23
2023-01-20T22:10:00.114Z,15.97
2023-01-20T22:12:26.852Z,13.97
2023-01-20T22:14:53.620Z,13.87
2023-01-20T22:17:20.470Z,13.80
2023-01-20T22:19:47.183Z,11.40
2023-01-20T22:22:15.284Z,15.20
2023-01-20T22:24:42.498Z,14.00
2023-01-20T22:27:09.247Z,12.90
2023-01-20T22:29:36.038Z,11.83
2023-01-20T22:32:04.217Z,11.93
2023-01-20T22:34:31.113Z,12.80
2023-01-20T22:37:00.528Z,13.83
2023-01-20T22:39:28.256Z,13.10
2023-01-20T22:41:55.019Z,12.07
2023-01-20T22:44:21.814Z,12.33
2023-01-20T22:46:48.520Z,12.00
2023-01-20T22:49:15.221Z,16.73
2023-01-20T22:51:41.990Z,14.53
2023-01-20T22:54:10.681Z,13.90
2023-01-20T22:56:39.079Z,13.57
2023-01-20T22:59:06.286Z,14.80
2023-01-20T23:01:35.281Z,14.53
2023-01-20T23:04:05.409Z,18.73
2023-01-20T23:06:34.659Z,12.50
2023-01-20T23:09:07.943Z,13.13
2023-01-20T23:11:36.550Z,12.53
2023-01-20T23:14:03.844Z,14.20
2023-01-20T23:16:30.683Z,14.60
2023-01-20T23:18:57.513Z,13.20
2023-01-20T23:21:24.622Z,14.30
2023-01-20T23:23:54.822Z,15.67
2023-01-20T23:26:24.488Z,16.60
2023-01-20T23:28:53.619Z,13.87
2023-01-20T23:31:21.126Z,12.00
2023-01-20T23:33:48.008Z,12.70
2023-01-20T23:36:17.367Z,14.40
2023-01-20T23:38:45.013Z,13.90
2023-01-20T23:41:13.303Z,15.97
2023-01-20T23:43:41.101Z,14.30
2023-01-20T23:46:08.353Z,14.63
2023-01-20T23:48:35.753Z,13.37
2023-01-20T23:51:02.799Z,12.00
2023-01-20T23:53:32.468Z,11.63
2023-01-20T23:56:01.598Z,12.50
2023-01-20T23:58:28.492Z,13.70
